Latest Weather Observations for Hindmarsh Island

IDS60801

Issued at 10:05 pm CST Tuesday 29 July 2014 (issued every 30 minutes, with the page automatically refreshed every 10 minutes)

About weather observations | Map of weather stations | Latest weather observations for SA | Other Formats
Station Details ID: 023894 Name: HINDMARSH ISLAND AWS Lat: -35.52 Lon: 138.82 Height: 11.0 m
Data from the previous 72 hours. | See also: Recent months at Hindmarsh Island
Date/Time
CST
Temp
°C
App
Temp
°C
Dew
Point
Rel
Hum
%
Delta-T
°C
Wind Press
QNH
hPa
Press
MSL
hPa
Rain
since 9 am
mm
Dir
 
Spd
km/h
Gust
km/h
Spd
kts
Gust
kts
29/10:00pm 14.3 10.0 10.9 80 1.8 WNW 24 32 13 17 1016.5 - 0.6
29/09:30pm 14.2 10.4 11.0 81 1.7 WNW 22 30 12 16 1016.4 - 0.6
29/09:00pm 14.0 10.4 11.7 86 1.2 WNW 22 30 12 16 1016.4 1016.4 0.6
29/08:30pm 14.1 10.5 12.0 87 1.1 W 22 28 12 15 1016.3 - 0.4
29/08:00pm 15.3 11.1 11.1 76 2.2 W 24 32 13 17 1016.0 - 0.0
29/07:30pm 15.2 10.5 10.8 75 2.3 WNW 26 39 14 21 1015.6 - 0.0
29/07:00pm 15.2 10.2 11.0 76 2.2 WNW 28 41 15 22 1015.5 - 0.0
29/06:30pm 14.8 9.0 10.8 77 2.1 WNW 32 44 17 24 1015.1 - 0.0
29/06:13pm 14.8 9.9 11.4 80 1.8 WNW 28 46 15 25 1015.1 - 0.0
29/06:00pm 15.2 9.6 11.4 78 2.0 W 32 44 17 24 1015.1 1015.0 0.0
29/05:42pm 15.5 9.8 11.3 76 2.3 WNW 32 50 17 27 1014.9 - 0.0
29/05:30pm 15.8 9.9 11.0 73 2.6 WNW 33 50 18 27 1014.8 - 0.0
29/05:22pm 16.0 10.3 11.0 72 2.7 WNW 32 50 17 27 1014.6 - 0.0
29/05:00pm 16.4 10.1 10.9 70 2.9 W 35 50 19 27 1014.4 - 0.0
29/04:39pm 16.4 10.6 10.9 70 2.9 WNW 32 52 17 28 1014.2 - 0.0
29/04:30pm 16.5 10.8 11.2 71 2.9 WNW 32 43 17 23 1014.1 - 0.0
29/04:02pm 16.5 9.7 10.6 68 3.1 WNW 37 61 20 33 1013.9 - 0.0
29/04:00pm 16.4 10.4 10.7 69 3.0 WNW 33 46 18 25 1013.9 - 0.0
29/03:34pm 16.3 10.6 11.2 72 2.7 WNW 32 50 17 27 1013.8 - 0.0
29/03:30pm 16.3 10.4 11.0 71 2.8 WNW 33 50 18 27 1013.8 - 0.0
29/03:00pm 16.7 9.6 11.0 69 3.1 WNW 39 56 21 30 1013.6 1013.6 0.0
29/02:30pm 16.3 10.6 11.0 71 2.8 WNW 32 56 17 30 1013.6 - 0.0
29/02:02pm 16.3 9.2 11.0 71 2.8 WNW 39 57 21 31 1013.2 - 0.0
29/02:00pm 16.4 9.0 11.1 71 2.8 WNW 41 57 22 31 1013.1 - 0.0
29/01:30pm 16.8 9.6 10.4 66 3.4 WNW 39 59 21 32 1013.0 - 0.0
29/01:00pm 16.4 9.7 10.9 70 2.9 WNW 37 54 20 29 1013.2 - 0.0
29/12:30pm 16.1 9.1 11.1 72 2.7 WNW 39 59 21 32 1013.6 - 0.0
29/12:09pm 16.2 9.9 10.9 71 2.8 WNW 35 54 19 29 1013.7 - 0.0
29/12:00pm 16.1 9.7 10.6 70 2.9 WNW 35 46 19 25 1013.8 1013.8 0.0
29/11:30am 15.9 10.2 11.1 73 2.6 WNW 32 46 17 25 1014.0 - 0.0
29/11:00am 15.3 8.6 11.1 76 2.2 WNW 37 63 20 34 1014.3 - 0.0
29/10:30am 15.9 7.3 10.4 70 2.9 WNW 46 69 25 37 1013.9 - 0.0
29/10:00am 15.5 7.5 10.3 71 2.7 WNW 43 61 23 33 1013.6 - 0.0
29/09:52am 15.6 7.9 10.2 70 2.8 WNW 41 61 22 33 1013.4 - 0.0
29/09:30am 14.7 8.3 10.7 77 2.1 NW 35 50 19 27 1013.4 - 0.0
29/09:01am 14.6 7.7 10.4 76 2.2 WNW 37 56 20 30 1013.7 - 0.0
29/09:00am 14.6 7.4 10.4 76 2.2 WNW 39 56 21 30 1013.7 1013.7 0.0
29/08:30am 14.7 8.5 9.9 73 2.5 WNW 33 48 18 26 1013.4 - 0.0
29/08:00am 14.5 7.5 10.1 75 2.3 WNW 37 50 20 27 1013.2 - 0.0
29/07:30am 14.2 6.1 10.0 76 2.2 WNW 43 57 23 31 1012.8 - 0.0
29/07:05am 14.1 6.3 9.7 75 2.3 NW 41 59 22 32 1012.7 - 0.0
29/07:00am 14.1 6.7 9.7 75 2.3 NW 39 56 21 30 1012.6 - 0.0
29/06:58am 14.0 7.0 9.8 76 2.2 NW 37 56 20 30 1012.6 - 0.0
29/06:30am 14.2 6.7 9.6 74 2.4 NW 39 54 21 29 1012.8 - 0.0
29/06:06am 14.4 6.6 9.6 73 2.5 WNW 41 59 22 32 1012.5 - 0.0
29/06:00am 14.1 6.6 9.5 74 2.4 NW 39 50 21 27 1012.6 1012.5 0.0
29/05:30am 13.8 6.7 9.5 75 2.2 NW 37 56 20 30 1012.4 - 0.0
29/05:02am 14.3 6.4 9.3 72 2.6 WNW 41 59 22 32 1012.9 - 0.0
29/05:00am 14.3 6.8 9.3 72 2.6 WNW 39 54 21 29 1013.1 - 0.0
29/04:37am 13.8 6.2 9.0 73 2.4 NW 39 57 21 31 1012.6 - 0.0
29/04:30am 13.9 5.9 9.1 73 2.4 NW 41 57 22 31 1012.2 - 0.0
29/04:00am 14.0 6.0 9.0 72 2.5 NW 41 59 22 32 1012.1 - 0.0
29/03:50am 14.0 6.8 9.0 72 2.5 NW 37 57 20 31 1012.1 - 0.0
29/03:30am 13.9 7.0 8.7 71 2.6 WNW 35 50 19 27 1012.5 - 0.0
29/03:02am 13.9 7.3 8.7 71 2.6 WNW 33 52 18 28 1012.5 - 0.0
29/03:00am 13.9 6.5 8.5 70 2.7 WNW 37 52 20 28 1012.4 1012.3 0.0
29/02:30am 14.2 6.0 8.4 68 2.9 WNW 41 59 22 32 1012.0 - 0.0
29/02:00am 13.9 7.2 8.3 69 2.8 NW 33 56 18 30 1012.8 - 0.0
29/01:30am 14.1 7.4 8.1 67 3.0 NW 33 54 18 29 1012.9 - 0.0
29/01:00am 14.3 7.6 8.0 66 3.1 WNW 33 57 18 31 1013.3 - 0.0
29/12:55am 14.3 7.5 7.8 65 3.2 WNW 33 52 18 28 1013.3 - 0.0
29/12:30am 14.3 8.1 7.8 65 3.2 NW 30 46 16 25 1013.7 - 0.0
29/12:23am 14.3 7.7 7.6 64 3.3 NW 32 50 17 27 1013.7 - 0.0
29/12:00am 14.2 8.3 7.3 63 3.4 NW 28 39 15 21 1014.0 1014.0 0.0
 
Date/Time
CST
Temp
°C
App
Temp
°C
Dew
Point
Rel
Hum
%
Delta-T
°C
Wind Press
QNH
hPa
Press
MSL
hPa
Rain
since 9 am
mm
Dir
 
Spd
km/h
Gust
km/h
Spd
kts
Gust
kts
28/11:30pm 13.9 9.7 7.4 65 3.2 NW 19 28 10 15 1014.5 - 0.0
28/11:00pm 13.9 9.1 7.4 65 3.2 NW 22 33 12 18 1014.5 - 0.0
28/10:30pm 14.0 8.6 7.8 66 3.1 NW 26 35 14 19 1014.7 - 0.0
28/10:00pm 14.1 9.1 7.9 66 3.1 NW 24 33 13 18 1014.7 - 0.0
28/09:30pm 13.8 9.5 7.8 67 3.0 NW 20 28 11 15 1014.9 - 0.0
28/09:00pm 13.7 9.5 8.3 70 2.7 NNW 20 26 11 14 1014.8 1014.9 0.0
28/08:30pm 13.7 9.6 8.5 71 2.6 NNW 20 30 11 16 1014.8 - 0.0
28/08:00pm 13.9 9.0 8.5 70 2.7 NNW 24 32 13 17 1014.7 - 0.0
28/07:30pm 13.7 9.2 8.5 71 2.6 NW 22 30 12 16 1014.7 - 0.0
28/07:00pm 13.5 9.7 9.0 74 2.3 NW 19 26 10 14 1014.6 - 0.0
28/06:30pm 13.4 10.0 9.1 75 2.2 NW 17 24 9 13 1014.6 - 0.0
28/06:00pm 13.7 9.8 9.4 75 2.2 NW 20 28 11 15 1014.4 1014.3 0.0
28/05:30pm 14.2 9.6 9.6 74 2.4 NW 24 32 13 17 1014.3 - 0.0
28/05:00pm 15.0 9.3 9.8 71 2.7 WNW 30 43 16 23 1014.5 - 0.0
28/04:30pm 15.3 9.2 9.7 69 2.9 NW 32 44 17 24 1014.1 - 0.0
28/04:00pm 15.9 9.7 9.3 65 3.4 NW 32 44 17 24 1013.7 - 0.0
28/03:30pm 16.1 9.7 9.3 64 3.5 NW 33 44 18 24 1013.8 - 0.0
28/03:14pm 16.2 10.4 9.4 64 3.5 NW 30 50 16 27 1013.7 - 0.0
28/03:00pm 16.3 10.1 9.3 63 3.6 WNW 32 46 17 25 1014.0 1014.0 0.0
28/02:30pm 16.5 9.6 9.0 61 3.9 NW 35 46 19 25 1014.1 - 0.0
28/02:00pm 16.4 9.9 8.9 61 3.9 WNW 33 43 18 23 1014.5 - 0.0
28/01:30pm 16.2 10.0 9.4 64 3.5 WNW 32 44 17 24 1014.9 - 0.0
28/01:00pm 16.0 9.5 8.0 59 4.0 WNW 32 43 17 23 1015.2 - 0.0
28/12:40pm 16.4 10.4 8.6 60 4.0 WNW 30 48 16 26 1015.5 - 0.0
28/12:30pm 16.2 9.8 8.4 60 4.0 WNW 32 44 17 24 1015.7 - 0.0
28/12:00pm 15.8 9.5 8.8 63 3.6 WNW 32 43 17 23 1016.2 1016.1 0.0
28/11:30am 15.9 9.7 9.3 65 3.4 WNW 32 43 17 23 1016.3 - 0.0
28/11:00am 15.7 9.4 9.1 65 3.4 WNW 32 43 17 23 1016.7 - 0.0
28/10:30am 15.0 9.2 9.4 69 2.9 WNW 30 41 16 22 1017.1 - 0.0
28/10:00am 14.5 8.3 9.3 71 2.7 WNW 32 41 17 22 1017.3 - 0.0
28/09:30am 14.3 9.8 10.1 76 2.2 NW 24 35 13 19 1017.2 - 0.0
28/09:00am 13.2 8.7 10.0 81 1.6 NW 24 35 13 19 1016.9 1016.9 0.0
28/08:30am 12.8 8.2 9.6 81 1.6 NW 24 35 13 19 1016.8 - 0.0
28/08:00am 11.5 8.9 9.2 86 1.2 NW 13 19 7 10 1016.9 - 0.0
28/07:30am 10.4 8.8 7.8 84 1.3 NE 6 9 3 5 1016.7 - 0.0
28/07:00am 10.3 8.4 7.5 83 1.3 NNE 7 7 4 4 1016.4 - 0.0
28/06:30am 12.0 9.3 8.8 81 1.6 NW 13 19 7 10 1016.4 - 0.0
28/06:00am 12.2 9.9 8.9 80 1.6 NW 11 17 6 9 1016.2 1016.2 0.0
28/05:30am 11.7 10.0 8.2 79 1.7 NW 7 11 4 6 1016.4 - 0.0
28/05:00am 11.4 9.7 7.7 78 1.8 NE 6 9 3 5 1016.5 - 0.0
28/04:30am 10.7 8.9 7.2 79 1.7 NW 6 11 3 6 1016.6 - 0.0
28/04:00am 11.0 8.3 7.3 78 1.8 N 11 15 6 8 1016.3 - 0.0
28/03:30am 12.1 9.5 7.6 74 2.2 NW 11 17 6 9 1016.3 - 0.0
28/03:00am 12.7 8.4 7.8 72 2.4 NW 20 26 11 14 1016.3 1016.3 0.0
28/02:30am 13.2 8.6 8.1 71 2.5 WNW 22 30 12 16 1016.5 - 0.0
28/02:00am 13.0 8.6 7.5 69 2.7 WNW 20 24 11 13 1016.8 - 0.0
28/01:30am 14.2 8.6 7.3 63 3.4 WNW 26 35 14 19 1016.6 - 0.0
28/01:00am 13.4 8.9 6.3 62 3.4 NW 19 28 10 15 1016.5 - 0.0
28/12:30am 13.5 8.9 5.7 59 3.7 NNW 19 26 10 14 1016.8 - 0.0
28/12:00am 14.3 8.7 5.4 55 4.2 NNW 24 28 13 15 1016.9 1016.9 0.0
 
Date/Time
CST
Temp
°C
App
Temp
°C
Dew
Point
Rel
Hum
%
Delta-T
°C
Wind Press
QNH
hPa
Press
MSL
hPa
Rain
since 9 am
mm
Dir
 
Spd
km/h
Gust
km/h
Spd
kts
Gust
kts
27/11:30pm 14.6 9.3 5.1 53 4.5 NNW 22 28 12 15 1017.2 - 0.0
27/11:00pm 14.8 9.9 5.1 52 4.6 NNW 20 30 11 16 1017.5 - 0.0
27/10:30pm 15.6 10.7 4.9 49 5.0 NNW 20 30 11 16 1017.8 - 0.0
27/10:00pm 15.2 10.3 4.9 50 4.8 NW 20 26 11 14 1017.8 - 0.0
27/09:30pm 15.6 10.2 4.6 48 5.1 NNW 22 32 12 17 1017.9 - 0.0
27/09:00pm 16.0 10.2 4.4 46 5.4 NNW 24 33 13 18 1017.8 1017.8 0.0
27/08:30pm 15.3 10.4 5.2 51 4.8 NNW 20 30 11 16 1017.7 - 0.0
27/08:00pm 14.6 10.3 5.4 54 4.3 N 17 22 9 12 1017.9 - 0.0
27/07:30pm 15.5 10.8 5.1 50 4.9 N 19 28 10 15 1018.2 - 0.0
27/07:00pm 16.0 9.6 5.0 48 5.2 N 28 35 15 19 1017.9 - 0.0
27/06:30pm 15.8 10.6 5.4 50 5.0 N 22 28 12 15 1018.3 - 0.0
27/06:00pm 15.6 11.0 5.5 51 4.8 NNW 19 26 10 14 1018.4 1018.4 0.0
27/05:30pm 15.6 10.8 5.8 52 4.7 NNW 20 24 11 13 1018.4 - 0.0
27/05:00pm 15.9 10.8 6.1 52 4.7 NNW 22 30 12 16 1018.2 - 0.0
27/04:30pm 16.3 11.2 5.9 50 5.0 NNW 22 35 12 19 1018.2 - 0.0
27/04:00pm 16.5 11.4 6.1 50 5.1 NNW 22 32 12 17 1018.3 - 0.0
27/03:30pm 16.5 11.0 6.1 50 5.1 NNW 24 35 13 19 1018.0 - 0.0
27/03:00pm 16.6 10.3 5.9 49 5.2 NW 28 41 15 22 1018.4 1018.5 0.0
27/02:30pm 16.6 9.6 6.1 50 5.1 NNW 32 43 17 23 1018.4 - 0.0
27/02:00pm 16.5 8.2 6.1 50 5.1 NW 39 52 21 28 1018.7 - 0.0
27/01:30pm 16.5 8.5 5.8 49 5.2 NW 37 46 20 25 1019.0 - 0.0
27/01:00pm 16.7 9.5 5.9 49 5.2 NNW 33 48 18 26 1019.1 - 0.0
27/12:51pm 16.4 8.8 6.0 50 5.0 NNW 35 54 19 29 1019.2 - 0.0
27/12:30pm 16.8 8.4 5.7 48 5.4 NW 39 50 21 27 1019.8 - 0.0
27/12:00pm 16.3 9.3 6.2 51 4.9 NNW 32 43 17 23 1020.7 1020.6 0.0
27/11:30am 16.0 8.4 5.6 50 5.0 NNW 35 50 19 27 1020.9 - 0.0
27/11:00am 15.4 9.3 6.7 56 4.2 NNW 28 39 15 21 1021.1 - 0.0
27/10:55am 15.5 9.4 6.8 56 4.3 NNW 28 41 15 22 1021.2 - 0.0
27/10:30am 13.8 11.0 6.9 63 3.3 N 11 22 6 12 1022.1 - 0.0
27/10:00am 12.2 9.1 8.9 80 1.6 ENE 15 20 8 11 1022.4 - 0.0
27/09:30am 11.1 8.7 8.5 84 1.3 E 11 13 6 7 1022.9 - 0.0
27/09:00am 9.9 7.2 7.3 84 1.2 NE 11 13 6 7 1023.1 - 0.2
27/08:30am 9.1 6.2 6.7 85 1.1 NNE 11 15 6 8 1023.1 - 0.2
27/08:00am 8.4 4.6 5.7 83 1.2 NE 15 17 8 9 1023.2 - 0.2
27/07:30am 8.3 4.5 5.6 83 1.2 NE 15 17 8 9 1023.3 - 0.2
27/07:00am 8.8 5.4 5.7 81 1.4 NNE 13 17 7 9 1023.1 - 0.2
27/06:30am 9.8 6.0 5.6 75 1.9 N 15 20 8 11 1022.9 - 0.2
27/06:00am 9.0 6.4 5.9 81 1.4 NE 9 13 5 7 1023.2 1023.2 0.2
27/05:30am 7.4 3.7 4.4 81 1.3 E 13 17 7 9 1023.0 - 0.2
27/05:00am 7.9 4.2 4.5 79 1.5 NE 13 17 7 9 1022.8 - 0.2
27/04:30am 7.9 3.9 5.0 82 1.3 NNE 15 17 8 9 1023.0 - 0.2
27/04:00am 7.5 3.5 5.1 85 1.1 N 15 17 8 9 1023.3 - 0.2
27/03:30am 6.6 2.8 4.1 84 1.1 NNE 13 15 7 8 1023.5 - 0.2
27/03:00am 7.6 3.9 4.6 81 1.3 N 13 15 7 8 1023.9 1023.9 0.2
27/02:30am 7.7 3.8 5.2 84 1.1 N 15 17 8 9 1024.0 - 0.2
27/02:00am 7.5 4.0 5.3 86 1.0 NNE 13 15 7 8 1024.1 - 0.2
27/01:30am 7.8 3.9 5.4 85 1.1 NNE 15 17 8 9 1024.2 - 0.2
27/01:00am 8.1 4.3 5.7 85 1.1 N 15 19 8 10 1024.3 - 0.2
27/12:30am 7.7 3.9 5.7 87 0.9 N 15 17 8 9 1024.7 - 0.0
27/12:00am 7.9 4.5 5.7 86 1.0 N 13 15 7 8 1024.9 1024.9 0.0
 
Date/Time
CST
Temp
°C
App
Temp
°C
Dew
Point
Rel
Hum
%
Delta-T
°C
Wind Press
QNH
hPa
Press
MSL
hPa
Rain
since 9 am
mm
Dir
 
Spd
km/h
Gust
km/h
Spd
kts
Gust
kts
26/11:30pm 8.0 4.6 5.8 86 1.0 N 13 15 7 8 1025.1 - 0.0
26/11:00pm 8.6 4.9 6.2 85 1.1 N 15 19 8 10 1025.3 - 0.0
26/10:30pm 9.3 5.3 6.6 83 1.3 N 17 20 9 11 1025.6 - 0.0

Other Formats:

Comma delimited format used in spreadsheet applications
http://www.bom.gov.au/fwo/IDS60801/IDS60801.94677.axf

JavaScript Object Notation format (JSON) in row-major order
http://www.bom.gov.au/fwo/IDS60801/IDS60801.94677.json